Brockley, United Kingdom
Current Conditions -  °F | °C
As of 7:50 PM on Friday 21 Nov 2014 (Local Time) from EGLC Reporting Station
Broken Clouds Broken Clouds  
Wind Chill: 43°   Ceiling: 900
Heat Index: 48°   Visibility: 3mi
Dew Point: 45°   Wind: 13mph
Humidity: 87%   Direction: 80°E
Pressure: 29.94"   Gusts: NA
Location:  51.45°N, 0.03°W
Report Text: EGLC 211950Z 08011KT 5000 BKN009 09/07 Q1014
Loading
Personal Weather Stations






























Interactive Weather Map New forecast layout! Learn more

10-Day Weather Forecast

Advertisements
Track Severe Weather on mobile